sensor_id;sensor_type;location;lat;lon;timestamp;P1;durP1;ratioP1;P2;durP2;ratioP2
22223;SDS011;11281;52.194;21.006;2023-09-30T00:03:43;18.45;;;9.65;;
22223;SDS011;11281;52.194;21.006;2023-09-30T00:07:45;15.57;;;8.93;;
22223;SDS011;11281;52.194;21.006;2023-09-30T00:11:47;13.43;;;8.70;;
22223;SDS011;11281;52.194;21.006;2023-09-30T00:15:49;17.50;;;9.25;;
22223;SDS011;11281;52.194;21.006;2023-09-30T00:19:51;13.77;;;7.97;;
22223;SDS011;11281;52.194;21.006;2023-09-30T00:23:53;14.18;;;9.10;;
22223;SDS011;11281;52.194;21.006;2023-09-30T00:27:55;14.45;;;8.43;;
22223;SDS011;11281;52.194;21.006;2023-09-30T00:31:56;17.38;;;8.85;;
22223;SDS011;11281;52.194;21.006;2023-09-30T00:35:58;13.77;;;7.93;;
22223;SDS011;11281;52.194;21.006;2023-09-30T00:39:59;15.75;;;9.23;;
22223;SDS011;11281;52.194;21.006;2023-09-30T00:44:01;15.30;;;8.82;;
22223;SDS011;11281;52.194;21.006;2023-09-30T00:48:03;12.15;;;7.47;;
22223;SDS011;11281;52.194;21.006;2023-09-30T00:52:05;14.65;;;9.13;;
22223;SDS011;11281;52.194;21.006;2023-09-30T00:56:07;16.73;;;9.63;;
22223;SDS011;11281;52.194;21.006;2023-09-30T01:00:09;13.07;;;8.32;;
22223;SDS011;11281;52.194;21.006;2023-09-30T01:04:12;17.65;;;9.18;;
22223;SDS011;11281;52.194;21.006;2023-09-30T01:08:16;12.23;;;9.60;;
22223;SDS011;11281;52.194;21.006;2023-09-30T01:12:18;13.93;;;9.10;;
22223;SDS011;11281;52.194;21.006;2023-09-30T01:16:19;14.50;;;9.73;;
22223;SDS011;11281;52.194;21.006;2023-09-30T01:20:21;14.13;;;8.48;;
22223;SDS011;11281;52.194;21.006;2023-09-30T01:24:24;17.73;;;9.10;;
22223;SDS011;11281;52.194;21.006;2023-09-30T01:28:30;14.88;;;9.23;;
22223;SDS011;11281;52.194;21.006;2023-09-30T01:32:32;14.40;;;8.90;;
22223;SDS011;11281;52.194;21.006;2023-09-30T01:36:34;17.67;;;9.27;;
22223;SDS011;11281;52.194;21.006;2023-09-30T01:40:35;14.45;;;9.02;;
22223;SDS011;11281;52.194;21.006;2023-09-30T01:44:38;15.15;;;9.18;;
22223;SDS011;11281;52.194;21.006;2023-09-30T01:48:40;14.55;;;9.15;;
22223;SDS011;11281;52.194;21.006;2023-09-30T01:52:41;15.93;;;8.82;;
22223;SDS011;11281;52.194;21.006;2023-09-30T01:56:43;16.88;;;9.43;;
22223;SDS011;11281;52.194;21.006;2023-09-30T02:00:45;17.05;;;9.65;;
22223;SDS011;11281;52.194;21.006;2023-09-30T02:04:47;13.40;;;8.55;;
22223;SDS011;11281;52.194;21.006;2023-09-30T02:08:49;15.10;;;9.30;;
22223;SDS011;11281;52.194;21.006;2023-09-30T02:12:51;11.18;;;8.10;;
22223;SDS011;11281;52.194;21.006;2023-09-30T02:16:52;12.43;;;8.52;;
22223;SDS011;11281;52.194;21.006;2023-09-30T02:20:54;14.88;;;8.77;;
22223;SDS011;11281;52.194;21.006;2023-09-30T02:24:56;15.02;;;8.68;;
22223;SDS011;11281;52.194;21.006;2023-09-30T02:28:58;14.25;;;9.05;;
22223;SDS011;11281;52.194;21.006;2023-09-30T02:33:00;13.05;;;7.47;;
22223;SDS011;11281;52.194;21.006;2023-09-30T02:37:02;14.15;;;8.45;;
22223;SDS011;11281;52.194;21.006;2023-09-30T02:41:04;12.38;;;8.18;;
22223;SDS011;11281;52.194;21.006;2023-09-30T02:45:06;15.65;;;9.27;;
22223;SDS011;11281;52.194;21.006;2023-09-30T02:49:09;19.40;;;8.25;;
22223;SDS011;11281;52.194;21.006;2023-09-30T02:53:11;11.88;;;8.18;;
22223;SDS011;11281;52.194;21.006;2023-09-30T02:57:14;13.65;;;7.93;;
22223;SDS011;11281;52.194;21.006;2023-09-30T03:01:16;12.88;;;8.70;;
22223;SDS011;11281;52.194;21.006;2023-09-30T03:05:18;16.98;;;8.13;;
22223;SDS011;11281;52.194;21.006;2023-09-30T03:09:21;13.07;;;8.50;;
22223;SDS011;11281;52.194;21.006;2023-09-30T03:13:23;15.93;;;8.98;;
22223;SDS011;11281;52.194;21.006;2023-09-30T03:17:26;11.82;;;8.00;;
22223;SDS011;11281;52.194;21.006;2023-09-30T03:21:30;12.35;;;8.35;;
22223;SDS011;11281;52.194;21.006;2023-09-30T03:25:32;15.40;;;9.18;;
22223;SDS011;11281;52.194;21.006;2023-09-30T03:29:35;19.20;;;8.60;;
22223;SDS011;11281;52.194;21.006;2023-09-30T03:33:39;14.10;;;8.52;;
22223;SDS011;11281;52.194;21.006;2023-09-30T03:37:41;12.82;;;8.77;;
22223;SDS011;11281;52.194;21.006;2023-09-30T03:41:42;14.00;;;8.93;;
22223;SDS011;11281;52.194;21.006;2023-09-30T03:45:44;12.90;;;8.35;;
22223;SDS011;11281;52.194;21.006;2023-09-30T03:49:46;13.93;;;8.20;;
22223;SDS011;11281;52.194;21.006;2023-09-30T03:53:48;12.90;;;8.48;;
22223;SDS011;11281;52.194;21.006;2023-09-30T03:57:50;10.45;;;7.97;;
22223;SDS011;11281;52.194;21.006;2023-09-30T04:01:52;13.70;;;8.77;;
22223;SDS011;11281;52.194;21.006;2023-09-30T04:05:54;15.30;;;8.75;;
22223;SDS011;11281;52.194;21.006;2023-09-30T04:09:55;16.23;;;9.35;;
22223;SDS011;11281;52.194;21.006;2023-09-30T04:13:57;14.30;;;9.40;;
22223;SDS011;11281;52.194;21.006;2023-09-30T04:17:59;14.52;;;8.43;;
22223;SDS011;11281;52.194;21.006;2023-09-30T04:22:01;15.40;;;9.38;;
22223;SDS011;11281;52.194;21.006;2023-09-30T04:26:04;15.18;;;9.35;;
22223;SDS011;11281;52.194;21.006;2023-09-30T04:30:06;15.70;;;9.48;;
22223;SDS011;11281;52.194;21.006;2023-09-30T04:34:09;15.52;;;8.98;;
22223;SDS011;11281;52.194;21.006;2023-09-30T04:38:12;14.65;;;8.68;;
22223;SDS011;11281;52.194;21.006;2023-09-30T04:42:14;19.98;;;8.27;;
22223;SDS011;11281;52.194;21.006;2023-09-30T04:46:18;14.52;;;9.52;;
22223;SDS011;11281;52.194;21.006;2023-09-30T04:50:24;13.43;;;8.13;;
22223;SDS011;11281;52.194;21.006;2023-09-30T04:54:26;14.27;;;8.52;;
22223;SDS011;11281;52.194;21.006;2023-09-30T04:58:30;11.48;;;7.80;;
22223;SDS011;11281;52.194;21.006;2023-09-30T05:02:32;17.08;;;8.63;;
22223;SDS011;11281;52.194;21.006;2023-09-30T05:06:34;12.93;;;8.63;;
22223;SDS011;11281;52.194;21.006;2023-09-30T05:10:37;16.67;;;8.35;;
22223;SDS011;11281;52.194;21.006;2023-09-30T05:14:39;11.35;;;7.90;;
22223;SDS011;11281;52.194;21.006;2023-09-30T05:18:41;12.65;;;7.75;;
22223;SDS011;11281;52.194;21.006;2023-09-30T05:22:43;15.27;;;8.07;;
22223;SDS011;11281;52.194;21.006;2023-09-30T05:26:46;12.55;;;7.95;;
22223;SDS011;11281;52.194;21.006;2023-09-30T05:30:49;15.15;;;7.85;;
22223;SDS011;11281;52.194;21.006;2023-09-30T05:34:51;13.40;;;8.00;;
22223;SDS011;11281;52.194;21.006;2023-09-30T05:38:55;14.60;;;7.75;;
22223;SDS011;11281;52.194;21.006;2023-09-30T05:42:58;15.38;;;8.13;;
22223;SDS011;11281;52.194;21.006;2023-09-30T05:47:01;13.38;;;8.15;;
22223;SDS011;11281;52.194;21.006;2023-09-30T05:51:03;15.32;;;8.15;;
22223;SDS011;11281;52.194;21.006;2023-09-30T05:55:05;12.85;;;8.23;;
22223;SDS011;11281;52.194;21.006;2023-09-30T05:59:07;10.95;;;8.77;;
22223;SDS011;11281;52.194;21.006;2023-09-30T06:03:10;14.55;;;7.55;;
22223;SDS011;11281;52.194;21.006;2023-09-30T06:07:12;11.50;;;7.95;;
22223;SDS011;11281;52.194;21.006;2023-09-30T06:11:17;14.60;;;8.20;;
22223;SDS011;11281;52.194;21.006;2023-09-30T06:15:25;14.50;;;7.53;;
22223;SDS011;11281;52.194;21.006;2023-09-30T06:19:27;10.90;;;7.32;;
22223;SDS011;11281;52.194;21.006;2023-09-30T06:23:29;10.65;;;7.35;;
22223;SDS011;11281;52.194;21.006;2023-09-30T06:27:32;14.35;;;7.78;;
22223;SDS011;11281;52.194;21.006;2023-09-30T06:31:34;13.38;;;7.85;;
22223;SDS011;11281;52.194;21.006;2023-09-30T06:35:35;12.73;;;7.82;;
22223;SDS011;11281;52.194;21.006;2023-09-30T06:39:41;13.23;;;7.50;;
22223;SDS011;11281;52.194;21.006;2023-09-30T06:43:42;14.10;;;7.18;;
22223;SDS011;11281;52.194;21.006;2023-09-30T06:47:44;11.23;;;7.43;;
22223;SDS011;11281;52.194;21.006;2023-09-30T06:51:46;11.48;;;7.57;;
22223;SDS011;11281;52.194;21.006;2023-09-30T06:55:48;12.27;;;8.07;;
22223;SDS011;11281;52.194;21.006;2023-09-30T06:59:50;12.63;;;8.00;;
22223;SDS011;11281;52.194;21.006;2023-09-30T07:03:52;12.02;;;7.30;;
22223;SDS011;11281;52.194;21.006;2023-09-30T07:07:54;10.65;;;6.78;;
22223;SDS011;11281;52.194;21.006;2023-09-30T07:11:56;12.82;;;7.90;;
22223;SDS011;11281;52.194;21.006;2023-09-30T07:15:58;15.18;;;7.70;;
22223;SDS011;11281;52.194;21.006;2023-09-30T07:20:00;11.55;;;7.90;;
22223;SDS011;11281;52.194;21.006;2023-09-30T07:24:04;14.05;;;8.25;;
22223;SDS011;11281;52.194;21.006;2023-09-30T07:28:06;12.00;;;8.00;;
22223;SDS011;11281;52.194;21.006;2023-09-30T07:32:12;14.95;;;8.27;;
22223;SDS011;11281;52.194;21.006;2023-09-30T07:36:13;12.55;;;7.72;;
22223;SDS011;11281;52.194;21.006;2023-09-30T07:40:15;14.65;;;8.10;;
22223;SDS011;11281;52.194;21.006;2023-09-30T07:44:16;11.52;;;7.22;;
22223;SDS011;11281;52.194;21.006;2023-09-30T07:48:18;12.77;;;7.65;;
22223;SDS011;11281;52.194;21.006;2023-09-30T07:52:20;11.65;;;8.45;;
22223;SDS011;11281;52.194;21.006;2023-09-30T07:56:21;14.75;;;8.63;;
22223;SDS011;11281;52.194;21.006;2023-09-30T08:00:23;17.08;;;8.90;;
22223;SDS011;11281;52.194;21.006;2023-09-30T08:04:25;13.82;;;8.43;;
22223;SDS011;11281;52.194;21.006;2023-09-30T08:08:27;14.95;;;9.00;;
22223;SDS011;11281;52.194;21.006;2023-09-30T08:12:30;13.88;;;8.45;;
22223;SDS011;11281;52.194;21.006;2023-09-30T08:16:33;15.90;;;9.30;;
22223;SDS011;11281;52.194;21.006;2023-09-30T08:20:35;12.77;;;8.55;;
22223;SDS011;11281;52.194;21.006;2023-09-30T08:24:37;14.05;;;8.32;;
22223;SDS011;11281;52.194;21.006;2023-09-30T08:28:39;14.98;;;9.00;;
22223;SDS011;11281;52.194;21.006;2023-09-30T08:32:41;13.98;;;8.93;;
22223;SDS011;11281;52.194;21.006;2023-09-30T08:36:42;12.50;;;8.30;;
22223;SDS011;11281;52.194;21.006;2023-09-30T08:40:44;16.73;;;10.25;;
22223;SDS011;11281;52.194;21.006;2023-09-30T08:44:47;15.02;;;9.35;;
22223;SDS011;11281;52.194;21.006;2023-09-30T08:48:49;14.77;;;8.63;;
22223;SDS011;11281;52.194;21.006;2023-09-30T08:52:51;14.95;;;8.32;;
22223;SDS011;11281;52.194;21.006;2023-09-30T08:56:54;12.77;;;9.38;;
22223;SDS011;11281;52.194;21.006;2023-09-30T09:00:56;15.60;;;9.63;;
22223;SDS011;11281;52.194;21.006;2023-09-30T09:04:58;15.45;;;10.00;;
22223;SDS011;11281;52.194;21.006;2023-09-30T09:09:16;14.25;;;9.38;;
22223;SDS011;11281;52.194;21.006;2023-09-30T09:13:20;15.05;;;9.13;;
22223;SDS011;11281;52.194;21.006;2023-09-30T09:17:22;17.80;;;8.70;;
22223;SDS011;11281;52.194;21.006;2023-09-30T09:21:24;15.52;;;9.93;;
22223;SDS011;11281;52.194;21.006;2023-09-30T09:25:28;16.35;;;10.43;;
22223;SDS011;11281;52.194;21.006;2023-09-30T09:29:30;17.20;;;9.10;;
22223;SDS011;11281;52.194;21.006;2023-09-30T09:33:34;15.13;;;9.70;;
22223;SDS011;11281;52.194;21.006;2023-09-30T09:37:39;19.08;;;9.05;;
22223;SDS011;11281;52.194;21.006;2023-09-30T09:41:53;14.45;;;9.43;;
22223;SDS011;11281;52.194;21.006;2023-09-30T09:45:58;15.57;;;10.65;;
22223;SDS011;11281;52.194;21.006;2023-09-30T09:50:04;17.52;;;11.15;;
22223;SDS011;11281;52.194;21.006;2023-09-30T09:54:07;17.75;;;10.32;;
22223;SDS011;11281;52.194;21.006;2023-09-30T09:58:09;18.83;;;10.27;;
22223;SDS011;11281;52.194;21.006;2023-09-30T10:02:12;17.52;;;11.43;;
22223;SDS011;11281;52.194;21.006;2023-09-30T10:06:15;14.00;;;8.38;;
22223;SDS011;11281;52.194;21.006;2023-09-30T10:10:19;11.38;;;6.85;;
22223;SDS011;11281;52.194;21.006;2023-09-30T10:14:32;10.07;;;6.38;;
22223;SDS011;11281;52.194;21.006;2023-09-30T10:19:06;9.02;;;5.18;;
22223;SDS011;11281;52.194;21.006;2023-09-30T10:31:49;6.32;;;2.90;;
22223;SDS011;11281;52.194;21.006;2023-09-30T10:35:51;5.18;;;2.45;;
22223;SDS011;11281;52.194;21.006;2023-09-30T10:44:05;3.72;;;2.83;;
22223;SDS011;11281;52.194;21.006;2023-09-30T10:52:37;4.32;;;2.17;;
22223;SDS011;11281;52.194;21.006;2023-09-30T10:56:39;3.22;;;2.25;;
22223;SDS011;11281;52.194;21.006;2023-09-30T11:00:54;9.00;;;2.00;;
22223;SDS011;11281;52.194;21.006;2023-09-30T11:04:56;5.30;;;2.08;;
22223;SDS011;11281;52.194;21.006;2023-09-30T11:08:59;4.35;;;2.08;;
22223;SDS011;11281;52.194;21.006;2023-09-30T11:13:03;9.27;;;2.88;;
22223;SDS011;11281;52.194;21.006;2023-09-30T11:17:04;6.38;;;2.30;;
22223;SDS011;11281;52.194;21.006;2023-09-30T11:21:10;4.80;;;2.20;;
22223;SDS011;11281;52.194;21.006;2023-09-30T11:25:17;7.22;;;2.03;;
22223;SDS011;11281;52.194;21.006;2023-09-30T11:29:19;4.80;;;2.22;;
22223;SDS011;11281;52.194;21.006;2023-09-30T11:33:21;4.72;;;2.10;;
22223;SDS011;11281;52.194;21.006;2023-09-30T11:37:23;4.53;;;2.40;;
22223;SDS011;11281;52.194;21.006;2023-09-30T11:41:33;5.03;;;2.22;;
22223;SDS011;11281;52.194;21.006;2023-09-30T11:45:39;6.97;;;2.33;;
22223;SDS011;11281;52.194;21.006;2023-09-30T11:49:41;4.57;;;2.03;;
22223;SDS011;11281;52.194;21.006;2023-09-30T11:53:49;7.90;;;2.53;;
22223;SDS011;11281;52.194;21.006;2023-09-30T11:57:51;3.63;;;1.98;;
22223;SDS011;11281;52.194;21.006;2023-09-30T12:01:55;9.07;;;2.28;;
22223;SDS011;11281;52.194;21.006;2023-09-30T12:05:58;6.22;;;2.58;;
22223;SDS011;11281;52.194;21.006;2023-09-30T12:10:01;6.03;;;2.58;;
22223;SDS011;11281;52.194;21.006;2023-09-30T12:14:04;5.32;;;2.85;;
22223;SDS011;11281;52.194;21.006;2023-09-30T12:18:06;6.47;;;2.30;;
22223;SDS011;11281;52.194;21.006;2023-09-30T12:22:08;5.43;;;2.03;;
22223;SDS011;11281;52.194;21.006;2023-09-30T12:26:11;3.95;;;1.95;;
22223;SDS011;11281;52.194;21.006;2023-09-30T12:30:13;7.68;;;2.55;;
22223;SDS011;11281;52.194;21.006;2023-09-30T12:34:15;10.13;;;2.55;;
22223;SDS011;11281;52.194;21.006;2023-09-30T12:38:17;4.40;;;2.17;;
22223;SDS011;11281;52.194;21.006;2023-09-30T12:42:19;6.97;;;2.50;;
22223;SDS011;11281;52.194;21.006;2023-09-30T12:46:21;6.93;;;2.20;;
22223;SDS011;11281;52.194;21.006;2023-09-30T12:50:22;5.88;;;2.30;;
22223;SDS011;11281;52.194;21.006;2023-09-30T12:54:27;6.75;;;2.15;;
22223;SDS011;11281;52.194;21.006;2023-09-30T12:58:28;5.00;;;2.30;;
22223;SDS011;11281;52.194;21.006;2023-09-30T13:02:30;5.07;;;2.17;;
22223;SDS011;11281;52.194;21.006;2023-09-30T13:06:31;6.30;;;2.53;;
22223;SDS011;11281;52.194;21.006;2023-09-30T13:10:36;7.00;;;2.65;;
22223;SDS011;11281;52.194;21.006;2023-09-30T13:14:39;9.50;;;2.95;;
22223;SDS011;11281;52.194;21.006;2023-09-30T13:18:40;2.78;;;1.98;;
22223;SDS011;11281;52.194;21.006;2023-09-30T13:22:41;5.13;;;2.40;;
22223;SDS011;11281;52.194;21.006;2023-09-30T13:26:43;5.95;;;2.60;;
22223;SDS011;11281;52.194;21.006;2023-09-30T13:30:45;4.05;;;2.05;;
22223;SDS011;11281;52.194;21.006;2023-09-30T13:34:47;4.97;;;2.08;;
22223;SDS011;11281;52.194;21.006;2023-09-30T13:38:49;5.70;;;2.03;;
22223;SDS011;11281;52.194;21.006;2023-09-30T13:42:51;4.82;;;2.25;;
22223;SDS011;11281;52.194;21.006;2023-09-30T13:46:53;6.80;;;1.88;;
22223;SDS011;11281;52.194;21.006;2023-09-30T13:50:54;4.07;;;1.63;;
22223;SDS011;11281;52.194;21.006;2023-09-30T13:55:05;5.25;;;1.88;;
22223;SDS011;11281;52.194;21.006;2023-09-30T13:59:07;3.45;;;1.33;;
22223;SDS011;11281;52.194;21.006;2023-09-30T14:03:09;5.43;;;1.88;;
22223;SDS011;11281;52.194;21.006;2023-09-30T14:07:11;4.00;;;1.70;;
22223;SDS011;11281;52.194;21.006;2023-09-30T14:11:13;6.63;;;2.10;;
22223;SDS011;11281;52.194;21.006;2023-09-30T14:15:14;6.18;;;2.03;;
22223;SDS011;11281;52.194;21.006;2023-09-30T14:19:16;4.53;;;1.73;;
22223;SDS011;11281;52.194;21.006;2023-09-30T14:23:18;6.25;;;1.80;;
22223;SDS011;11281;52.194;21.006;2023-09-30T14:27:20;3.88;;;1.75;;
22223;SDS011;11281;52.194;21.006;2023-09-30T14:31:22;7.13;;;2.53;;
22223;SDS011;11281;52.194;21.006;2023-09-30T14:35:24;3.08;;;1.85;;
22223;SDS011;11281;52.194;21.006;2023-09-30T14:39:25;6.97;;;2.58;;
22223;SDS011;11281;52.194;21.006;2023-09-30T14:43:27;5.88;;;1.65;;
22223;SDS011;11281;52.194;21.006;2023-09-30T14:47:29;6.32;;;1.70;;
22223;SDS011;11281;52.194;21.006;2023-09-30T14:51:32;9.98;;;2.33;;
22223;SDS011;11281;52.194;21.006;2023-09-30T14:55:37;5.18;;;1.95;;
22223;SDS011;11281;52.194;21.006;2023-09-30T14:59:39;3.75;;;1.83;;
22223;SDS011;11281;52.194;21.006;2023-09-30T15:03:41;5.75;;;1.98;;
22223;SDS011;11281;52.194;21.006;2023-09-30T15:07:45;10.13;;;2.40;;
22223;SDS011;11281;52.194;21.006;2023-09-30T15:11:47;7.85;;;2.13;;
22223;SDS011;11281;52.194;21.006;2023-09-30T15:15:49;4.63;;;1.48;;
22223;SDS011;11281;52.194;21.006;2023-09-30T15:19:51;8.40;;;2.58;;
22223;SDS011;11281;52.194;21.006;2023-09-30T15:23:53;6.63;;;2.15;;
22223;SDS011;11281;52.194;21.006;2023-09-30T15:27:55;3.85;;;1.55;;
22223;SDS011;11281;52.194;21.006;2023-09-30T15:31:57;11.00;;;2.05;;
22223;SDS011;11281;52.194;21.006;2023-09-30T15:35:59;6.32;;;2.10;;
22223;SDS011;11281;52.194;21.006;2023-09-30T15:40:10;4.25;;;2.22;;
22223;SDS011;11281;52.194;21.006;2023-09-30T15:44:12;5.80;;;1.80;;
22223;SDS011;11281;52.194;21.006;2023-09-30T15:48:14;5.38;;;1.98;;
22223;SDS011;11281;52.194;21.006;2023-09-30T15:52:17;3.17;;;1.52;;
22223;SDS011;11281;52.194;21.006;2023-09-30T15:56:18;4.95;;;1.60;;
22223;SDS011;11281;52.194;21.006;2023-09-30T16:00:19;6.90;;;2.28;;
22223;SDS011;11281;52.194;21.006;2023-09-30T16:04:21;6.93;;;1.77;;
22223;SDS011;11281;52.194;21.006;2023-09-30T16:08:22;6.60;;;1.90;;
22223;SDS011;11281;52.194;21.006;2023-09-30T16:12:24;4.05;;;2.08;;
22223;SDS011;11281;52.194;21.006;2023-09-30T16:16:26;7.35;;;2.47;;
22223;SDS011;11281;52.194;21.006;2023-09-30T16:20:28;5.03;;;2.90;;
22223;SDS011;11281;52.194;21.006;2023-09-30T16:24:30;5.47;;;2.60;;
22223;SDS011;11281;52.194;21.006;2023-09-30T16:28:31;5.22;;;3.03;;
22223;SDS011;11281;52.194;21.006;2023-09-30T16:32:33;9.57;;;3.22;;
22223;SDS011;11281;52.194;21.006;2023-09-30T16:36:38;12.52;;;4.20;;
22223;SDS011;11281;52.194;21.006;2023-09-30T16:40:40;12.52;;;4.18;;
22223;SDS011;11281;52.194;21.006;2023-09-30T16:44:47;8.55;;;3.28;;
22223;SDS011;11281;52.194;21.006;2023-09-30T16:48:50;10.18;;;3.10;;
22223;SDS011;11281;52.194;21.006;2023-09-30T16:52:53;8.95;;;3.17;;
22223;SDS011;11281;52.194;21.006;2023-09-30T16:56:56;6.10;;;3.42;;
22223;SDS011;11281;52.194;21.006;2023-09-30T17:01:00;6.47;;;3.03;;
22223;SDS011;11281;52.194;21.006;2023-09-30T17:05:01;8.55;;;3.55;;
22223;SDS011;11281;52.194;21.006;2023-09-30T17:09:04;4.60;;;2.40;;
22223;SDS011;11281;52.194;21.006;2023-09-30T17:13:06;7.28;;;2.90;;
22223;SDS011;11281;52.194;21.006;2023-09-30T17:17:08;10.20;;;2.90;;
22223;SDS011;11281;52.194;21.006;2023-09-30T17:21:10;4.10;;;2.50;;
22223;SDS011;11281;52.194;21.006;2023-09-30T17:25:12;7.43;;;3.22;;
22223;SDS011;11281;52.194;21.006;2023-09-30T17:29:14;7.70;;;2.88;;
22223;SDS011;11281;52.194;21.006;2023-09-30T17:33:15;10.60;;;3.80;;
22223;SDS011;11281;52.194;21.006;2023-09-30T17:37:17;7.10;;;3.50;;
22223;SDS011;11281;52.194;21.006;2023-09-30T17:41:20;9.63;;;3.60;;
22223;SDS011;11281;52.194;21.006;2023-09-30T17:45:21;8.07;;;3.67;;
22223;SDS011;11281;52.194;21.006;2023-09-30T17:49:25;10.93;;;3.53;;
22223;SDS011;11281;52.194;21.006;2023-09-30T17:53:26;9.25;;;3.30;;
22223;SDS011;11281;52.194;21.006;2023-09-30T17:57:28;7.95;;;3.25;;
22223;SDS011;11281;52.194;21.006;2023-09-30T18:01:29;7.93;;;3.08;;
22223;SDS011;11281;52.194;21.006;2023-09-30T18:05:31;10.93;;;3.67;;
22223;SDS011;11281;52.194;21.006;2023-09-30T18:09:32;7.70;;;3.67;;
22223;SDS011;11281;52.194;21.006;2023-09-30T18:13:34;6.13;;;3.03;;
22223;SDS011;11281;52.194;21.006;2023-09-30T18:17:36;8.98;;;3.78;;
22223;SDS011;11281;52.194;21.006;2023-09-30T18:21:39;7.05;;;3.22;;
22223;SDS011;11281;52.194;21.006;2023-09-30T18:25:41;7.18;;;3.50;;
22223;SDS011;11281;52.194;21.006;2023-09-30T18:29:45;7.15;;;3.65;;
22223;SDS011;11281;52.194;21.006;2023-09-30T18:33:46;8.32;;;3.05;;
22223;SDS011;11281;52.194;21.006;2023-09-30T18:37:48;9.77;;;3.67;;
22223;SDS011;11281;52.194;21.006;2023-09-30T18:41:50;8.52;;;3.35;;
22223;SDS011;11281;52.194;21.006;2023-09-30T18:45:53;9.48;;;3.75;;
22223;SDS011;11281;52.194;21.006;2023-09-30T18:49:54;15.00;;;3.75;;
22223;SDS011;11281;52.194;21.006;2023-09-30T18:53:55;6.85;;;3.35;;
22223;SDS011;11281;52.194;21.006;2023-09-30T18:57:57;10.95;;;3.55;;
22223;SDS011;11281;52.194;21.006;2023-09-30T19:02:00;7.60;;;3.65;;
22223;SDS011;11281;52.194;21.006;2023-09-30T19:06:04;12.27;;;3.80;;
22223;SDS011;11281;52.194;21.006;2023-09-30T19:10:06;15.00;;;4.43;;
22223;SDS011;11281;52.194;21.006;2023-09-30T19:14:08;9.85;;;3.80;;
22223;SDS011;11281;52.194;21.006;2023-09-30T19:18:14;11.85;;;3.92;;
22223;SDS011;11281;52.194;21.006;2023-09-30T19:22:16;9.00;;;3.85;;
22223;SDS011;11281;52.194;21.006;2023-09-30T19:26:18;7.53;;;3.15;;
22223;SDS011;11281;52.194;21.006;2023-09-30T19:30:20;8.02;;;3.40;;
22223;SDS011;11281;52.194;21.006;2023-09-30T19:34:22;11.07;;;3.50;;
22223;SDS011;11281;52.194;21.006;2023-09-30T19:38:23;7.60;;;3.22;;
22223;SDS011;11281;52.194;21.006;2023-09-30T19:42:25;7.97;;;2.90;;
22223;SDS011;11281;52.194;21.006;2023-09-30T19:46:27;10.07;;;3.38;;
22223;SDS011;11281;52.194;21.006;2023-09-30T19:50:30;9.15;;;2.95;;
22223;SDS011;11281;52.194;21.006;2023-09-30T19:54:31;7.45;;;3.95;;
22223;SDS011;11281;52.194;21.006;2023-09-30T19:58:33;6.35;;;2.70;;
22223;SDS011;11281;52.194;21.006;2023-09-30T20:02:35;5.63;;;2.70;;
22223;SDS011;11281;52.194;21.006;2023-09-30T20:06:37;7.82;;;2.40;;
22223;SDS011;11281;52.194;21.006;2023-09-30T20:10:39;17.38;;;6.82;;
22223;SDS011;11281;52.194;21.006;2023-09-30T20:14:40;15.32;;;6.85;;
22223;SDS011;11281;52.194;21.006;2023-09-30T20:18:43;7.60;;;3.40;;
22223;SDS011;11281;52.194;21.006;2023-09-30T20:22:45;7.00;;;2.80;;
22223;SDS011;11281;52.194;21.006;2023-09-30T20:26:47;5.28;;;2.80;;
22223;SDS011;11281;52.194;21.006;2023-09-30T20:30:48;6.80;;;2.63;;
22223;SDS011;11281;52.194;21.006;2023-09-30T20:34:51;5.95;;;2.92;;
22223;SDS011;11281;52.194;21.006;2023-09-30T20:38:52;7.88;;;2.70;;
22223;SDS011;11281;52.194;21.006;2023-09-30T20:42:54;7.10;;;3.38;;
22223;SDS011;11281;52.194;21.006;2023-09-30T20:46:57;8.65;;;3.05;;
22223;SDS011;11281;52.194;21.006;2023-09-30T20:51:02;10.48;;;4.55;;
22223;SDS011;11281;52.194;21.006;2023-09-30T20:55:07;12.90;;;4.35;;
22223;SDS011;11281;52.194;21.006;2023-09-30T20:59:09;8.15;;;3.13;;
22223;SDS011;11281;52.194;21.006;2023-09-30T21:03:12;8.18;;;2.63;;
22223;SDS011;11281;52.194;21.006;2023-09-30T21:07:14;5.07;;;2.60;;
22223;SDS011;11281;52.194;21.006;2023-09-30T21:11:16;5.93;;;2.67;;
22223;SDS011;11281;52.194;21.006;2023-09-30T21:15:18;8.52;;;2.83;;
22223;SDS011;11281;52.194;21.006;2023-09-30T21:19:20;9.70;;;2.83;;
22223;SDS011;11281;52.194;21.006;2023-09-30T21:23:22;7.40;;;3.13;;
22223;SDS011;11281;52.194;21.006;2023-09-30T21:27:24;6.95;;;2.50;;
22223;SDS011;11281;52.194;21.006;2023-09-30T21:31:25;8.40;;;2.55;;
22223;SDS011;11281;52.194;21.006;2023-09-30T21:35:28;6.90;;;2.72;;
22223;SDS011;11281;52.194;21.006;2023-09-30T21:39:30;10.93;;;3.28;;
22223;SDS011;11281;52.194;21.006;2023-09-30T21:43:31;4.20;;;2.80;;
22223;SDS011;11281;52.194;21.006;2023-09-30T21:47:33;6.78;;;2.75;;
22223;SDS011;11281;52.194;21.006;2023-09-30T21:51:35;5.78;;;2.97;;
22223;SDS011;11281;52.194;21.006;2023-09-30T21:55:37;7.53;;;2.70;;
22223;SDS011;11281;52.194;21.006;2023-09-30T21:59:40;7.60;;;3.38;;
22223;SDS011;11281;52.194;21.006;2023-09-30T22:03:42;8.38;;;2.40;;
22223;SDS011;11281;52.194;21.006;2023-09-30T22:07:43;7.18;;;2.78;;
22223;SDS011;11281;52.194;21.006;2023-09-30T22:11:45;5.72;;;2.45;;
22223;SDS011;11281;52.194;21.006;2023-09-30T22:15:47;5.53;;;2.67;;
22223;SDS011;11281;52.194;21.006;2023-09-30T22:19:49;6.07;;;2.55;;
22223;SDS011;11281;52.194;21.006;2023-09-30T22:23:51;4.18;;;2.17;;
22223;SDS011;11281;52.194;21.006;2023-09-30T22:27:52;9.65;;;2.88;;
22223;SDS011;11281;52.194;21.006;2023-09-30T22:31:54;8.73;;;2.85;;
22223;SDS011;11281;52.194;21.006;2023-09-30T22:35:57;11.75;;;3.03;;
22223;SDS011;11281;52.194;21.006;2023-09-30T22:39:59;6.07;;;2.65;;
22223;SDS011;11281;52.194;21.006;2023-09-30T22:44:01;6.55;;;3.03;;
22223;SDS011;11281;52.194;21.006;2023-09-30T22:48:03;4.75;;;2.60;;
22223;SDS011;11281;52.194;21.006;2023-09-30T22:52:05;4.85;;;2.95;;
22223;SDS011;11281;52.194;21.006;2023-09-30T22:56:07;7.45;;;3.40;;
22223;SDS011;11281;52.194;21.006;2023-09-30T23:00:09;5.75;;;2.80;;
22223;SDS011;11281;52.194;21.006;2023-09-30T23:04:15;4.03;;;2.90;;
22223;SDS011;11281;52.194;21.006;2023-09-30T23:08:17;6.10;;;3.15;;
22223;SDS011;11281;52.194;21.006;2023-09-30T23:12:19;7.28;;;2.67;;
22223;SDS011;11281;52.194;21.006;2023-09-30T23:16:20;7.18;;;2.60;;
22223;SDS011;11281;52.194;21.006;2023-09-30T23:20:21;7.55;;;2.85;;
22223;SDS011;11281;52.194;21.006;2023-09-30T23:24:24;7.07;;;2.78;;
22223;SDS011;11281;52.194;21.006;2023-09-30T23:28:27;5.80;;;2.70;;
22223;SDS011;11281;52.194;21.006;2023-09-30T23:32:34;9.02;;;2.83;;
22223;SDS011;11281;52.194;21.006;2023-09-30T23:36:36;10.77;;;3.30;;
22223;SDS011;11281;52.194;21.006;2023-09-30T23:40:40;10.50;;;3.97;;
22223;SDS011;11281;52.194;21.006;2023-09-30T23:44:42;7.78;;;2.67;;
22223;SDS011;11281;52.194;21.006;2023-09-30T23:48:44;8.40;;;3.17;;
22223;SDS011;11281;52.194;21.006;2023-09-30T23:52:47;14.15;;;4.15;;
22223;SDS011;11281;52.194;21.006;2023-09-30T23:56:52;13.05;;;4.20;;
